Mestre Emiliano — CUSN — position and weather

sailwx.info

Track history (hours):
 
Tides and Currents Weather Stations Pressure Air Temp Water Temp Dewpoint Dewpoint Depression Visibility Wind Speed Wind Dir Waves Ship Positions

Mestre Emiliano

Last reported at 2017-Dec-28 21:07 UTC. Time now 2018-Jan-18 03:58 UTC.
Position N 36°49' W 008°04'.
Warning: this ship's position is 20 days out of date.

Length 24 m.

Type: Fishing. MMSI: 263237000.

Date/timePositionNaut miles runAvg speedWind from/ knotsBaromVisibWave heightAir tempDewpointWater temp
2017-Dec-28 21:07N 36°49' W 008°04'0 3.2
2017-Dec-28 20:59N 36°49' W 008°04'2 3.3
2017-Dec-28 20:30N 36°49' W 008°06'2 4.7
2017-Dec-28 20:00N 36°48' W 008°09'0 0.5
2017-Dec-28 19:29N 36°48' W 008°09'1 2.9
2017-Dec-28 19:00N 36°47' W 008°11'2 3.1
2017-Dec-28 18:30N 36°48' W 008°13'2 3.1
2017-Dec-28 18:00N 36°47' W 008°15'3 3.0
2017-Dec-28 16:51N 36°47' W 008°19'1 2.8
2017-Dec-28 16:30N 36°47' W 008°20'1 2.8
2017-Dec-28 16:00N 36°47' W 008°22'0 0.5
2017-Dec-28 15:30N 36°47' W 008°22'0 0.1
2017-Dec-28 15:00N 36°47' W 008°22'0 0.8
2017-Dec-28 14:30N 36°47' W 008°23'0 0.8
2017-Dec-28 14:00N 36°47' W 008°22'8 1.9
2017-Dec-28 09:35N 36°47' W 008°12'  
2017-Dec-22 08:42N 36°49' W 008°05'3 3.0
2017-Dec-22 07:34N 36°48' W 008°09'1 3.0
2017-Dec-22 07:15N 36°48' W 008°10'1 3.1
2017-Dec-22 07:00N 36°48' W 008°11'7 0.4
2017-Dec-21 11:39N 36°50' W 008°03'1 3.1
2017-Dec-21 11:24N 36°50' W 008°03'1 3.0
2017-Dec-21 11:00N 36°50' W 008°05'2 3.8
2017-Dec-21 10:30N 36°49' W 008°07'2 0.1
2017-Dec-20 11:01N 36°50' W 008°04'1 3.1
2017-Dec-20 10:50N 36°50' W 008°05'1 3.6
2017-Dec-20 10:30N 36°49' W 008°07'3 0.4
2017-Dec-20 03:07N 36°49' W 008°03'1 2.9
2017-Dec-20 02:52N 36°49' W 008°04'1 2.9
2017-Dec-20 02:26N 36°49' W 008°05'2 2.9
2017-Dec-20 01:54N 36°48' W 008°07'1 2.9
2017-Dec-20 01:29N 36°48' W 008°08'4 0.2
2017-Dec-19 00:54N 36°49' W 008°03'1 3.0
2017-Dec-19 00:30N 36°49' W 008°04'2 3.9
2017-Dec-19 00:00N 36°48' W 008°07'  
Track history (hours):
 
Tides and Currents Weather Stations Pressure Air Temp Water Temp Dewpoint Dewpoint Depression Visibility Wind Speed Wind Dir Waves Ship Positions

Mestre Emiliano

Last reported at 2017-Dec-28 21:07 UTC. Time now 2018-Jan-18 03:58 UTC.
Position N 36°49' W 008°04'.
Warning: this ship's position is 20 days out of date.

Length 24 m.

Type: Fishing. MMSI: 263237000.

Date/timePositionNaut miles runAvg speedWind from/ knotsBaromVisibWave heightAir tempDewpointWater temp
2017-Dec-28 21:07N 36°49' W 008°04'0 3.2
2017-Dec-28 20:59N 36°49' W 008°04'2 3.3
2017-Dec-28 20:30N 36°49' W 008°06'2 4.7
2017-Dec-28 20:00N 36°48' W 008°09'0 0.5
2017-Dec-28 19:29N 36°48' W 008°09'1 2.9
2017-Dec-28 19:00N 36°47' W 008°11'2 3.1
2017-Dec-28 18:30N 36°48' W 008°13'2 3.1
2017-Dec-28 18:00N 36°47' W 008°15'3 3.0
2017-Dec-28 16:51N 36°47' W 008°19'1 2.8
2017-Dec-28 16:30N 36°47' W 008°20'1 2.8
2017-Dec-28 16:00N 36°47' W 008°22'0 0.5
2017-Dec-28 15:30N 36°47' W 008°22'0 0.1
2017-Dec-28 15:00N 36°47' W 008°22'0 0.8
2017-Dec-28 14:30N 36°47' W 008°23'0 0.8
2017-Dec-28 14:00N 36°47' W 008°22'8 1.9
2017-Dec-28 09:35N 36°47' W 008°12'  
2017-Dec-22 08:42N 36°49' W 008°05'3 3.0
2017-Dec-22 07:34N 36°48' W 008°09'1 3.0
2017-Dec-22 07:15N 36°48' W 008°10'1 3.1
2017-Dec-22 07:00N 36°48' W 008°11'7 0.4
2017-Dec-21 11:39N 36°50' W 008°03'1 3.1
2017-Dec-21 11:24N 36°50' W 008°03'1 3.0
2017-Dec-21 11:00N 36°50' W 008°05'2 3.8
2017-Dec-21 10:30N 36°49' W 008°07'2 0.1
2017-Dec-20 11:01N 36°50' W 008°04'1 3.1
2017-Dec-20 10:50N 36°50' W 008°05'1 3.6
2017-Dec-20 10:30N 36°49' W 008°07'3 0.4
2017-Dec-20 03:07N 36°49' W 008°03'1 2.9
2017-Dec-20 02:52N 36°49' W 008°04'1 2.9
2017-Dec-20 02:26N 36°49' W 008°05'2 2.9
2017-Dec-20 01:54N 36°48' W 008°07'1 2.9
2017-Dec-20 01:29N 36°48' W 008°08'4 0.2
2017-Dec-19 00:54N 36°49' W 008°03'1 3.0
2017-Dec-19 00:30N 36°49' W 008°04'2 3.9
2017-Dec-19 00:00N 36°48' W 008°07'  

Dump ship's entire track history